ADDS METAR Data

Data at: 0256 UTC 21 Jun 2018

METAR for:KSDL (Scottsdale Muni, AZ, US)
Text:KSDL 210253Z 23003KT 10SM CLR 38/00 A2979 RMK AO2 SLP058 T03830000 53001
Temperature: 38.3°C (101°F)
Dewpoint: 0.0°C ( 32°F) [RH = 9%]
Pressure (altimeter):29.79 inches Hg (1008.9 mb) [Sea level pressure: 1005.8 mb]
Winds:from the SW (230 degrees) at 3 MPH (3 knots; 1.5 m/s)
Visibility:10 or more sm (16+ km)
Ceiling:at least 12,000 feet AGL
Clouds:sky clear below 12,000 feet AGL